createdAt,value
2023-04-30T00:00:52.113Z,26.58
2023-04-30T00:02:58.483Z,29.60
2023-04-30T00:05:05.167Z,23.17
2023-04-30T00:07:12.499Z,23.13
2023-04-30T00:09:17.933Z,22.63
2023-04-30T00:11:31.510Z,21.88
2023-04-30T00:13:36.548Z,28.27
2023-04-30T00:15:42.322Z,26.13
2023-04-30T00:17:47.437Z,24.10
2023-04-30T00:19:53.252Z,25.50
2023-04-30T00:22:03.829Z,21.73
2023-04-30T00:24:09.500Z,22.25
2023-04-30T00:26:16.694Z,22.92
2023-04-30T00:28:27.959Z,19.58
2023-04-30T00:30:33.582Z,19.52
2023-04-30T00:32:40.042Z,21.88
2023-04-30T00:34:46.146Z,21.35
2023-04-30T00:36:51.231Z,21.02
2023-04-30T00:38:56.661Z,22.92
2023-04-30T00:41:04.725Z,20.95
2023-04-30T00:45:22.497Z,21.92
2023-04-30T00:47:29.151Z,24.25
2023-04-30T00:49:35.170Z,23.30
2023-04-30T00:51:48.459Z,21.17
2023-04-30T00:53:53.828Z,25.38
2023-04-30T00:55:59.934Z,26.73
2023-04-30T00:58:06.312Z,22.50
2023-04-30T01:00:14.062Z,23.75
2023-04-30T01:02:23.194Z,22.50
2023-04-30T01:04:28.506Z,19.50
2023-04-30T01:06:36.244Z,19.35
2023-04-30T01:08:42.414Z,23.05
2023-04-30T01:10:59.347Z,18.50
2023-04-30T01:13:13.449Z,18.38
2023-04-30T01:15:28.907Z,19.45
2023-04-30T01:17:45.033Z,21.35
2023-04-30T01:19:53.977Z,22.33
2023-04-30T01:22:05.667Z,24.33
2023-04-30T01:24:46.587Z,22.52
2023-04-30T01:27:17.219Z,24.23
2023-04-30T01:29:27.268Z,23.02
2023-04-30T01:31:39.067Z,20.70
2023-04-30T01:33:44.214Z,21.73
2023-04-30T01:36:19.914Z,24.27
2023-04-30T01:38:49.772Z,24.95
2023-04-30T01:41:06.237Z,28.45
2023-04-30T01:43:31.179Z,22.70
2023-04-30T01:46:01.848Z,26.40
2023-04-30T01:48:30.960Z,24.08
2023-04-30T01:50:52.393Z,23.45
2023-04-30T01:53:05.804Z,23.52
2023-04-30T01:55:16.918Z,24.40
2023-04-30T01:57:32.309Z,21.77
2023-04-30T01:59:42.803Z,22.00
2023-04-30T02:01:52.940Z,28.83
2023-04-30T02:03:59.406Z,23.52
2023-04-30T02:06:05.053Z,22.98
2023-04-30T02:08:15.546Z,23.83
2023-04-30T02:10:23.741Z,22.27
2023-04-30T02:12:33.018Z,22.70
2023-04-30T02:14:40.946Z,28.02
2023-04-30T02:16:46.058Z,21.83
2023-04-30T02:18:54.439Z,20.33
2023-04-30T02:21:00.483Z,30.65
2023-04-30T02:23:08.357Z,27.00
2023-04-30T02:25:14.424Z,27.00
2023-04-30T02:27:22.756Z,24.13
2023-04-30T02:29:27.972Z,23.65
2023-04-30T02:31:35.586Z,24.42
2023-04-30T02:33:41.904Z,25.40
2023-04-30T02:35:52.213Z,24.17
2023-04-30T02:37:58.184Z,26.67
2023-04-30T02:40:05.323Z,21.48
2023-04-30T02:42:14.058Z,24.20
2023-04-30T02:44:22.124Z,22.77
2023-04-30T02:48:38.291Z,23.77
2023-04-30T02:50:44.693Z,24.75
2023-04-30T02:52:56.992Z,23.10
2023-04-30T02:55:04.748Z,27.48
2023-04-30T02:57:13.889Z,26.45
2023-04-30T02:59:23.182Z,25.10
2023-04-30T03:01:33.806Z,21.77
2023-04-30T03:03:40.302Z,22.08
2023-04-30T03:05:47.322Z,24.02
2023-04-30T03:07:55.926Z,21.77
2023-04-30T03:10:03.068Z,21.48
2023-04-30T03:12:13.438Z,22.20
2023-04-30T03:14:18.736Z,24.42
2023-04-30T03:16:24.871Z,23.20
2023-04-30T03:18:31.134Z,22.60
2023-04-30T03:20:36.456Z,23.65
2023-04-30T03:22:42.012Z,22.85
2023-04-30T03:24:51.101Z,21.48
2023-04-30T03:29:02.497Z,23.08
2023-04-30T03:31:11.137Z,21.85
2023-04-30T03:33:16.555Z,21.58
2023-04-30T03:35:25.390Z,26.05
2023-04-30T03:37:30.838Z,27.65
2023-04-30T03:39:40.512Z,31.05
2023-04-30T03:41:49.426Z,29.77
2023-04-30T03:43:54.736Z,30.15
2023-04-30T03:46:01.297Z,28.50
2023-04-30T03:48:07.031Z,23.30
2023-04-30T03:50:14.428Z,23.45
2023-04-30T03:52:19.645Z,24.42
2023-04-30T03:54:30.611Z,24.77
2023-04-30T03:56:36.142Z,18.55
2023-04-30T03:58:49.443Z,20.33
2023-04-30T04:00:55.701Z,24.45
2023-04-30T04:03:02.770Z,26.98
2023-04-30T04:05:10.042Z,75.82
2023-04-30T04:07:18.063Z,73.05
2023-04-30T04:09:26.172Z,54.28
2023-04-30T04:11:32.447Z,182.68
2023-04-30T04:13:37.507Z,173.60
2023-04-30T04:15:46.926Z,210.45
2023-04-30T04:17:54.279Z,181.25
2023-04-30T04:19:59.773Z,121.85
2023-04-30T04:22:05.411Z,87.90
2023-04-30T04:24:15.359Z,83.82
2023-04-30T04:26:25.799Z,37.70
2023-04-30T04:28:35.961Z,43.22
2023-04-30T04:30:42.225Z,46.28
2023-04-30T04:32:54.550Z,41.85
2023-04-30T04:34:59.991Z,37.67
2023-04-30T04:37:06.089Z,48.10
2023-04-30T04:39:12.052Z,45.60
2023-04-30T04:41:17.101Z,56.75
2023-04-30T04:43:22.763Z,38.47
2023-04-30T04:45:28.840Z,45.13
2023-04-30T04:47:34.660Z,74.53
2023-04-30T04:49:42.300Z,112.63
2023-04-30T04:51:47.340Z,139.68
2023-04-30T04:53:56.188Z,117.65
2023-04-30T04:56:01.338Z,113.78
2023-04-30T04:58:06.839Z,142.23
2023-04-30T05:00:13.490Z,99.40
2023-04-30T05:02:18.491Z,240.18
2023-04-30T05:04:24.084Z,236.82
2023-04-30T05:06:32.296Z,237.55
2023-04-30T05:08:38.559Z,173.95
2023-04-30T05:10:44.890Z,217.15
2023-04-30T05:12:53.013Z,43.20
2023-04-30T05:14:58.360Z,90.85
2023-04-30T05:17:03.560Z,136.05
2023-04-30T05:19:09.916Z,180.23
2023-04-30T05:21:17.087Z,196.00
2023-04-30T05:23:24.725Z,131.25
2023-04-30T05:25:30.346Z,148.10
2023-04-30T05:27:36.824Z,95.80
2023-04-30T05:29:44.606Z,131.88
2023-04-30T05:31:51.119Z,133.70
2023-04-30T05:33:56.173Z,112.57
2023-04-30T05:36:01.463Z,97.15
2023-04-30T05:38:08.191Z,158.98
2023-04-30T05:40:18.648Z,111.57
2023-04-30T05:42:24.161Z,162.52
2023-04-30T05:44:33.141Z,129.30
2023-04-30T05:46:38.588Z,127.20
2023-04-30T05:48:43.720Z,145.35
2023-04-30T05:50:50.214Z,340.88
2023-04-30T05:55:04.244Z,126.43
2023-04-30T05:57:11.941Z,187.07
2023-04-30T05:59:17.264Z,166.05
2023-04-30T06:01:29.302Z,181.20
2023-04-30T06:03:34.760Z,46.95
2023-04-30T06:05:41.766Z,97.07
2023-04-30T06:07:47.973Z,70.72
2023-04-30T06:09:54.399Z,49.20
2023-04-30T06:12:06.677Z,70.30
2023-04-30T06:14:14.903Z,49.50
2023-04-30T06:16:20.847Z,101.05
2023-04-30T06:18:26.322Z,38.88
2023-04-30T06:20:31.351Z,51.97
2023-04-30T06:22:42.262Z,27.00
2023-04-30T06:24:47.288Z,44.58
2023-04-30T06:26:55.508Z,77.28
2023-04-30T06:31:08.455Z,40.88
2023-04-30T06:33:13.502Z,43.90
2023-04-30T06:35:24.220Z,56.00
2023-04-30T06:37:32.413Z,38.42
2023-04-30T06:39:40.806Z,44.53
2023-04-30T06:41:50.399Z,26.55
2023-04-30T06:43:57.644Z,31.80
2023-04-30T06:46:02.748Z,22.98
2023-04-30T06:48:11.783Z,21.98
2023-04-30T06:50:18.777Z,21.73
2023-04-30T06:52:26.472Z,20.67
2023-04-30T06:54:33.627Z,22.63
2023-04-30T06:56:40.444Z,23.52
2023-04-30T06:58:51.891Z,25.73
2023-04-30T07:00:58.111Z,20.88
2023-04-30T07:03:07.081Z,23.00
2023-04-30T07:05:16.501Z,22.70
2023-04-30T07:07:25.299Z,23.88
2023-04-30T07:09:30.348Z,21.83
2023-04-30T07:11:37.166Z,23.60
2023-04-30T07:13:42.692Z,22.63
2023-04-30T07:15:48.006Z,22.73
2023-04-30T07:17:53.399Z,22.08
2023-04-30T07:19:58.486Z,20.42
2023-04-30T07:22:11.346Z,23.77
2023-04-30T07:24:17.594Z,20.95
2023-04-30T07:26:25.175Z,18.33
2023-04-30T07:28:36.181Z,22.08
2023-04-30T07:30:41.320Z,20.65
2023-04-30T07:32:49.099Z,18.45
2023-04-30T07:34:54.142Z,21.75
2023-04-30T07:37:01.319Z,18.20
2023-04-30T07:39:12.096Z,19.57
2023-04-30T07:41:19.750Z,19.52
2023-04-30T07:45:31.468Z,15.50
2023-04-30T07:47:36.787Z,18.70
2023-04-30T07:49:41.861Z,17.90
2023-04-30T07:52:01.931Z,15.82
2023-04-30T07:54:10.600Z,14.48
2023-04-30T07:56:16.340Z,14.75
2023-04-30T07:58:22.407Z,14.95
2023-04-30T08:00:29.573Z,15.18
2023-04-30T08:02:40.796Z,12.65
2023-04-30T08:04:46.184Z,13.32
2023-04-30T08:06:53.871Z,10.52
2023-04-30T08:11:16.369Z,9.70
2023-04-30T08:13:21.685Z,11.80
2023-04-30T08:15:27.598Z,10.00
2023-04-30T08:17:33.859Z,9.10
2023-04-30T08:19:40.396Z,10.75
2023-04-30T08:21:46.228Z,10.13
2023-04-30T08:23:54.825Z,7.40
2023-04-30T08:25:59.994Z,10.35
2023-04-30T08:28:09.802Z,7.15
2023-04-30T08:30:17.135Z,7.13
2023-04-30T08:32:25.202Z,7.70
2023-04-30T08:36:38.315Z,7.00
2023-04-30T08:38:44.624Z,6.88
2023-04-30T08:40:55.475Z,6.38
2023-04-30T08:43:12.417Z,4.72
2023-04-30T08:45:17.438Z,6.60
2023-04-30T08:47:24.938Z,7.97
2023-04-30T08:49:37.356Z,6.68
2023-04-30T08:51:45.883Z,4.70
2023-04-30T08:53:53.357Z,6.13
2023-04-30T08:55:59.555Z,4.90
2023-04-30T08:58:05.892Z,9.77
2023-04-30T09:00:15.801Z,5.07
2023-04-30T09:02:21.045Z,4.47
2023-04-30T09:04:26.633Z,4.15
2023-04-30T09:06:34.717Z,7.38
2023-04-30T09:08:47.518Z,4.07
2023-04-30T09:10:52.574Z,3.67
2023-04-30T09:13:04.427Z,19.52
2023-04-30T09:15:16.035Z,3.65
2023-04-30T09:17:25.844Z,2.35
2023-04-30T09:19:33.799Z,2.50
2023-04-30T09:21:48.106Z,3.38
2023-04-30T09:24:03.167Z,2.40
2023-04-30T09:26:08.387Z,3.17
2023-04-30T09:28:17.353Z,4.93
2023-04-30T09:30:42.209Z,3.78
2023-04-30T09:33:00.748Z,1.33
2023-04-30T09:35:11.878Z,1.90
2023-04-30T09:37:18.701Z,3.20
2023-04-30T09:39:24.433Z,3.38
2023-04-30T09:41:33.995Z,1.90
2023-04-30T09:43:48.355Z,4.20
2023-04-30T09:46:01.036Z,4.68
2023-04-30T09:48:16.404Z,2.85
2023-04-30T09:50:23.147Z,1.98
2023-04-30T09:52:29.279Z,1.83
2023-04-30T09:54:36.253Z,3.30
2023-04-30T09:56:44.369Z,2.05
2023-04-30T09:58:54.949Z,0.80
2023-04-30T10:01:04.958Z,0.65
2023-04-30T10:03:12.465Z,1.20
2023-04-30T10:05:19.734Z,1.13
2023-04-30T10:07:34.123Z,0.63
2023-04-30T10:09:47.044Z,0.98
2023-04-30T10:11:57.075Z,3.42
2023-04-30T10:14:06.026Z,0.80
2023-04-30T10:16:29.425Z,1.45
2023-04-30T10:18:40.014Z,1.52
2023-04-30T10:20:49.556Z,0.40
2023-04-30T10:22:56.320Z,0.60
2023-04-30T10:25:02.588Z,0.68
2023-04-30T10:27:08.034Z,0.93
2023-04-30T10:29:16.281Z,0.63
2023-04-30T10:31:26.048Z,0.20
2023-04-30T10:33:49.807Z,0.20
2023-04-30T10:36:04.690Z,1.23
2023-04-30T10:38:24.115Z,0.30
2023-04-30T10:40:30.514Z,0.43
2023-04-30T10:42:39.032Z,0.80
2023-04-30T10:44:45.123Z,1.05
2023-04-30T10:46:53.162Z,0.80
2023-04-30T10:49:01.476Z,2.72
2023-04-30T10:51:09.064Z,0.85
2023-04-30T10:53:19.392Z,1.88
2023-04-30T10:55:26.132Z,1.05
2023-04-30T10:57:34.358Z,1.42
2023-04-30T10:59:50.713Z,0.60
2023-04-30T11:02:03.750Z,1.75
2023-04-30T11:04:14.039Z,2.15
2023-04-30T11:06:29.683Z,1.30
2023-04-30T11:08:39.162Z,0.50
2023-04-30T11:11:02.893Z,1.20
2023-04-30T11:13:12.061Z,0.73
2023-04-30T11:15:20.169Z,0.82
2023-04-30T11:17:32.772Z,0.95
2023-04-30T11:19:37.870Z,2.42
2023-04-30T11:21:44.775Z,0.80
2023-04-30T11:23:52.779Z,2.63
2023-04-30T11:26:01.180Z,2.78
2023-04-30T11:28:06.919Z,1.30
2023-04-30T11:30:17.372Z,1.73
2023-04-30T11:32:23.797Z,0.73
2023-04-30T11:34:33.450Z,1.65
2023-04-30T11:36:39.021Z,1.00
2023-04-30T11:38:45.955Z,0.52
2023-04-30T11:40:51.793Z,1.88
2023-04-30T11:43:00.717Z,1.00
2023-04-30T11:45:13.313Z,1.27
2023-04-30T11:47:21.656Z,1.83
2023-04-30T11:49:29.719Z,1.08
2023-04-30T11:51:44.448Z,0.52
2023-04-30T11:53:51.504Z,1.27
2023-04-30T11:55:57.969Z,0.80
2023-04-30T11:58:03.919Z,1.65
2023-04-30T12:00:18.334Z,1.45
2023-04-30T12:02:23.744Z,1.63
2023-04-30T12:04:30.296Z,0.70
2023-04-30T12:06:41.698Z,1.65
2023-04-30T12:08:49.720Z,1.88
2023-04-30T12:10:59.462Z,2.13
2023-04-30T12:13:05.880Z,0.90
2023-04-30T12:15:25.598Z,1.20
2023-04-30T12:17:37.822Z,1.17
2023-04-30T12:19:42.936Z,1.50
2023-04-30T12:21:58.824Z,1.58
2023-04-30T12:24:04.447Z,2.55
2023-04-30T12:26:11.360Z,2.00
2023-04-30T12:28:18.516Z,1.55
2023-04-30T12:30:28.159Z,0.90
2023-04-30T12:32:35.002Z,1.58
2023-04-30T12:34:41.558Z,0.88
2023-04-30T12:36:46.820Z,2.58
2023-04-30T12:39:06.743Z,1.08
2023-04-30T12:41:20.040Z,1.88
2023-04-30T12:43:27.589Z,0.60
2023-04-30T12:45:51.663Z,1.30
2023-04-30T12:47:57.319Z,0.93
2023-04-30T12:50:02.792Z,0.82
2023-04-30T12:52:11.626Z,1.27
2023-04-30T12:54:27.920Z,1.38
2023-04-30T12:56:32.953Z,0.93
2023-04-30T12:58:40.906Z,1.77
2023-04-30T13:00:51.526Z,3.58
2023-04-30T13:02:59.057Z,0.80
2023-04-30T13:05:04.319Z,1.73
2023-04-30T13:07:09.895Z,0.50
2023-04-30T13:09:16.209Z,0.60
2023-04-30T13:11:26.459Z,1.25
2023-04-30T13:13:33.828Z,0.50
2023-04-30T13:15:40.810Z,2.17
2023-04-30T13:17:45.967Z,0.88
2023-04-30T13:19:51.233Z,0.95
2023-04-30T13:21:57.319Z,0.65
2023-04-30T13:24:04.848Z,0.55
2023-04-30T13:26:09.891Z,0.57
2023-04-30T13:28:18.703Z,0.95
2023-04-30T13:30:26.195Z,2.05
2023-04-30T13:32:34.575Z,1.52
2023-04-30T13:34:39.605Z,1.45
2023-04-30T13:36:46.950Z,0.60
2023-04-30T13:40:58.962Z,0.60
2023-04-30T13:43:04.447Z,0.73
2023-04-30T13:45:14.988Z,1.23
2023-04-30T13:47:19.982Z,0.40
2023-04-30T13:49:25.035Z,0.63
2023-04-30T13:51:33.358Z,2.15
2023-04-30T13:53:38.801Z,1.27
2023-04-30T13:55:43.961Z,1.17
2023-04-30T13:57:50.529Z,1.50
2023-04-30T13:59:58.356Z,0.90
2023-04-30T14:02:06.203Z,1.27
2023-04-30T14:04:12.661Z,1.00
2023-04-30T14:08:24.308Z,0.82
2023-04-30T14:10:29.492Z,0.90
2023-04-30T14:12:46.861Z,2.63
2023-04-30T14:14:51.887Z,1.08
2023-04-30T14:16:57.848Z,1.00
2023-04-30T14:19:08.069Z,1.60
2023-04-30T14:21:14.650Z,0.75
2023-04-30T14:23:21.415Z,0.68
2023-04-30T14:25:27.907Z,0.73
2023-04-30T14:27:35.597Z,0.70
2023-04-30T14:29:43.045Z,3.95
2023-04-30T14:31:51.531Z,1.40
2023-04-30T14:33:58.948Z,3.97
2023-04-30T14:36:08.014Z,0.70
2023-04-30T14:38:15.207Z,1.33
2023-04-30T14:40:20.376Z,0.70
2023-04-30T14:42:26.841Z,0.75
2023-04-30T14:44:32.603Z,2.13
2023-04-30T14:46:37.875Z,0.82
2023-04-30T14:48:45.373Z,1.13
2023-04-30T14:50:52.054Z,2.15
2023-04-30T14:53:00.351Z,0.68
2023-04-30T14:55:06.584Z,1.42
2023-04-30T14:57:12.735Z,1.33
2023-04-30T14:59:20.761Z,1.77
2023-04-30T15:01:28.390Z,4.22
2023-04-30T15:03:35.694Z,2.10
2023-04-30T15:05:43.039Z,4.75
2023-04-30T15:07:48.100Z,22.88
2023-04-30T15:09:56.977Z,18.20
2023-04-30T15:12:02.620Z,4.43
2023-04-30T15:14:09.290Z,2.25
2023-04-30T15:16:15.895Z,3.05
2023-04-30T15:18:21.047Z,2.50
2023-04-30T15:20:26.183Z,2.13
2023-04-30T15:22:37.074Z,1.50
2023-04-30T15:24:42.382Z,4.63
2023-04-30T15:26:51.523Z,2.38
2023-04-30T15:28:57.809Z,1.98
2023-04-30T15:31:04.209Z,1.10
2023-04-30T15:33:09.586Z,8.48
2023-04-30T15:35:21.394Z,21.38
2023-04-30T15:37:34.069Z,9.73
2023-04-30T15:39:39.747Z,7.30
2023-04-30T15:41:52.529Z,5.05
2023-04-30T15:43:57.565Z,3.60
2023-04-30T15:46:03.453Z,6.30
2023-04-30T15:48:09.150Z,3.80
2023-04-30T15:50:16.687Z,1.75
2023-04-30T15:52:22.844Z,2.00
2023-04-30T15:54:28.691Z,2.85
2023-04-30T15:56:34.912Z,2.47
2023-04-30T15:58:43.733Z,2.97
2023-04-30T16:00:49.260Z,1.00
2023-04-30T16:02:55.291Z,3.17
2023-04-30T16:05:03.452Z,1.60
2023-04-30T16:07:09.071Z,2.97
2023-04-30T16:09:19.765Z,1.30
2023-04-30T16:11:25.458Z,1.63
2023-04-30T16:13:36.788Z,8.88
2023-04-30T16:15:45.504Z,5.63
2023-04-30T16:17:51.283Z,2.35
2023-04-30T16:19:56.567Z,3.55
2023-04-30T16:22:03.963Z,7.03
2023-04-30T16:24:10.494Z,4.88
2023-04-30T16:26:16.014Z,7.17
2023-04-30T16:28:23.633Z,5.53
2023-04-30T16:30:28.875Z,2.80
2023-04-30T16:32:49.385Z,0.93
2023-04-30T16:34:56.751Z,2.10
2023-04-30T16:37:03.747Z,1.60
2023-04-30T16:39:11.504Z,1.23
2023-04-30T16:41:19.014Z,1.20
2023-04-30T16:45:30.439Z,2.22
2023-04-30T16:47:41.283Z,1.08
2023-04-30T16:49:46.464Z,1.35
2023-04-30T16:51:51.622Z,2.75
2023-04-30T16:53:56.929Z,1.15
2023-04-30T16:56:03.352Z,1.77
2023-04-30T16:58:09.784Z,2.83
2023-04-30T17:00:17.783Z,6.00
2023-04-30T17:02:24.924Z,4.03
2023-04-30T17:04:33.176Z,2.92
2023-04-30T17:06:38.764Z,1.92
2023-04-30T17:08:43.815Z,1.15
2023-04-30T17:10:52.517Z,2.88
2023-04-30T17:12:59.530Z,4.60
2023-04-30T17:15:08.066Z,1.40
2023-04-30T17:17:16.272Z,2.35
2023-04-30T17:19:22.780Z,3.03
2023-04-30T17:21:34.112Z,1.70
2023-04-30T17:23:40.521Z,2.10
2023-04-30T17:25:45.786Z,2.33
2023-04-30T17:27:52.673Z,4.13
2023-04-30T17:29:58.012Z,2.47
2023-04-30T17:32:06.452Z,1.00
2023-04-30T17:34:14.676Z,3.30
2023-04-30T17:36:19.933Z,2.50
2023-04-30T17:38:28.794Z,2.22
2023-04-30T17:40:34.374Z,1.52
2023-04-30T17:42:39.712Z,2.45
2023-04-30T17:44:44.734Z,2.83
2023-04-30T17:46:50.191Z,3.03
2023-04-30T17:48:55.305Z,2.15
2023-04-30T17:51:00.466Z,3.13
2023-04-30T17:53:09.015Z,3.15
2023-04-30T17:55:18.008Z,2.80
2023-04-30T17:57:23.323Z,1.75
2023-04-30T17:59:30.931Z,2.65
2023-04-30T18:01:36.126Z,2.42
2023-04-30T18:03:43.206Z,2.10
2023-04-30T18:05:53.569Z,1.40
2023-04-30T18:07:58.551Z,3.13
2023-04-30T18:10:06.576Z,3.80
2023-04-30T18:12:14.384Z,2.58
2023-04-30T18:14:20.083Z,3.20
2023-04-30T18:16:32.574Z,3.45
2023-04-30T18:18:41.151Z,4.07
2023-04-30T18:20:52.045Z,2.80
2023-04-30T18:22:57.103Z,2.33
2023-04-30T18:25:02.449Z,2.97
2023-04-30T18:27:16.616Z,2.90
2023-04-30T18:29:26.192Z,2.67
2023-04-30T18:31:39.390Z,3.70
2023-04-30T18:33:48.795Z,2.22
2023-04-30T18:35:54.147Z,3.55
2023-04-30T18:38:02.928Z,2.65
2023-04-30T18:40:10.664Z,2.67
2023-04-30T18:42:20.928Z,1.90
2023-04-30T18:44:34.094Z,2.10
2023-04-30T18:46:41.648Z,3.38
2023-04-30T18:48:47.166Z,2.92
2023-04-30T18:50:55.558Z,3.35
2023-04-30T18:53:10.751Z,2.83
2023-04-30T18:55:16.406Z,4.03
2023-04-30T18:57:26.453Z,4.75
2023-04-30T18:59:33.692Z,3.92
2023-04-30T19:01:41.607Z,3.45
2023-04-30T19:03:47.049Z,7.18
2023-04-30T19:05:59.559Z,6.80
2023-04-30T19:08:05.103Z,3.80
2023-04-30T19:10:11.747Z,4.38
2023-04-30T19:12:17.431Z,3.97
2023-04-30T19:14:25.891Z,6.93
2023-04-30T19:16:38.481Z,3.30
2023-04-30T19:18:45.159Z,3.05
2023-04-30T19:21:00.476Z,4.10
2023-04-30T19:23:07.833Z,3.65
2023-04-30T19:25:14.449Z,4.43
2023-04-30T19:27:19.623Z,5.80
2023-04-30T19:29:29.785Z,3.92
2023-04-30T19:31:39.165Z,3.53
2023-04-30T19:33:44.384Z,7.07
2023-04-30T19:35:53.382Z,5.07
2023-04-30T19:38:00.296Z,4.63
2023-04-30T19:40:05.546Z,4.53
2023-04-30T19:42:11.363Z,5.93
2023-04-30T19:44:20.273Z,4.72
2023-04-30T19:46:27.905Z,4.63
2023-04-30T19:48:33.872Z,5.35
2023-04-30T19:50:42.722Z,5.65
2023-04-30T19:52:52.984Z,4.15
2023-04-30T19:54:59.939Z,5.18
2023-04-30T19:57:05.453Z,6.47
2023-04-30T19:59:13.120Z,3.90
2023-04-30T20:01:20.522Z,14.05
2023-04-30T20:03:28.946Z,4.95
2023-04-30T20:05:39.834Z,6.07
2023-04-30T20:07:47.026Z,4.43
2023-04-30T20:09:52.418Z,8.07
2023-04-30T20:11:57.918Z,9.15
2023-04-30T20:14:05.765Z,5.30
2023-04-30T20:16:12.913Z,4.68
2023-04-30T20:18:21.183Z,3.28
2023-04-30T20:20:30.911Z,4.28
2023-04-30T20:22:36.184Z,3.67
2023-04-30T20:24:41.387Z,5.93
2023-04-30T20:26:46.498Z,5.68
2023-04-30T20:28:51.595Z,5.82
2023-04-30T20:30:59.443Z,6.53
2023-04-30T20:33:06.775Z,9.18
2023-04-30T20:35:14.401Z,4.25
2023-04-30T20:37:22.224Z,6.28
2023-04-30T20:41:36.061Z,6.40
2023-04-30T20:43:41.848Z,8.70
2023-04-30T20:45:48.696Z,10.05
2023-04-30T20:47:55.366Z,10.05
2023-04-30T20:50:01.160Z,7.05
2023-04-30T20:52:06.372Z,6.50
2023-04-30T20:54:15.287Z,6.85
2023-04-30T20:56:21.579Z,8.10
2023-04-30T20:58:27.580Z,8.07
2023-04-30T21:00:32.614Z,7.82
2023-04-30T21:02:44.033Z,8.45
2023-04-30T21:04:49.560Z,5.72
2023-04-30T21:06:55.048Z,7.70
2023-04-30T21:09:00.136Z,5.63
2023-04-30T21:11:09.465Z,7.78
2023-04-30T21:13:15.134Z,5.05
2023-04-30T21:15:26.087Z,5.80
2023-04-30T21:17:31.594Z,5.70
2023-04-30T21:19:41.043Z,9.88
2023-04-30T21:21:50.997Z,7.00
2023-04-30T21:23:56.014Z,4.07
2023-04-30T21:26:03.934Z,6.88
2023-04-30T21:28:14.478Z,5.15
2023-04-30T21:30:22.377Z,6.13
2023-04-30T21:32:32.184Z,7.28
2023-04-30T21:34:37.224Z,5.82
2023-04-30T21:36:42.972Z,6.03
2023-04-30T21:38:49.742Z,5.53
2023-04-30T21:41:01.888Z,8.23
2023-04-30T21:43:14.426Z,6.68
2023-04-30T21:45:20.828Z,7.97
2023-04-30T21:47:27.272Z,9.57
2023-04-30T21:49:32.572Z,6.80
2023-04-30T21:51:39.868Z,6.65
2023-04-30T21:53:45.810Z,7.80
2023-04-30T21:55:51.461Z,9.77
2023-04-30T21:57:59.676Z,6.50
2023-04-30T22:00:14.514Z,7.50
2023-04-30T22:02:27.496Z,8.20
2023-04-30T22:04:35.200Z,7.25
2023-04-30T22:10:59.841Z,6.88
2023-04-30T22:13:05.494Z,6.28
2023-04-30T22:15:16.498Z,5.72
2023-04-30T22:17:21.876Z,8.07
2023-04-30T22:19:26.970Z,5.38
2023-04-30T22:21:37.297Z,6.40
2023-04-30T22:23:42.565Z,8.25
2023-04-30T22:25:47.841Z,4.47
2023-04-30T22:27:54.455Z,6.75
2023-04-30T22:30:02.097Z,6.65
2023-04-30T22:32:10.103Z,5.47
2023-04-30T22:34:20.907Z,6.03
2023-04-30T22:36:25.923Z,6.18
2023-04-30T22:38:32.201Z,7.80
2023-04-30T22:40:40.722Z,8.73
2023-04-30T22:42:51.206Z,7.18
2023-04-30T22:44:57.165Z,7.25
2023-04-30T22:47:03.946Z,7.15
2023-04-30T22:49:27.506Z,8.20
2023-04-30T22:51:38.768Z,8.95
2023-04-30T22:53:44.047Z,8.10
2023-04-30T22:55:49.206Z,7.50
2023-04-30T22:57:59.793Z,11.50
2023-04-30T23:00:05.223Z,5.30
2023-04-30T23:02:10.598Z,5.15
2023-04-30T23:04:20.860Z,7.30
2023-04-30T23:06:30.929Z,6.93
2023-04-30T23:08:37.578Z,8.10
2023-04-30T23:10:46.147Z,10.40
2023-04-30T23:12:55.505Z,7.22
2023-04-30T23:15:00.559Z,5.40
2023-04-30T23:17:06.011Z,6.97
2023-04-30T23:19:12.054Z,11.50
2023-04-30T23:21:23.514Z,7.50
2023-04-30T23:23:29.640Z,8.88
2023-04-30T23:25:35.191Z,4.90
2023-04-30T23:27:40.821Z,7.18
2023-04-30T23:29:46.201Z,8.32
2023-04-30T23:31:53.999Z,8.43
2023-04-30T23:34:01.659Z,10.40
2023-04-30T23:36:08.009Z,8.73
2023-04-30T23:38:17.411Z,8.48
2023-04-30T23:40:23.416Z,8.15
2023-04-30T23:42:36.365Z,9.80
2023-04-30T23:44:41.615Z,8.75
2023-04-30T23:46:48.299Z,8.87
2023-04-30T23:48:57.902Z,6.03
2023-04-30T23:51:03.749Z,5.03
2023-04-30T23:53:09.339Z,7.25
2023-04-30T23:55:18.064Z,4.63
2023-04-30T23:57:23.323Z,7.32
2023-04-30T23:59:29.890Z,6.07
